Time;durP1;ratioP1;P1;durP2;ratioP2;P2;SDS_P1;SDS_P2;PMS_P1;PMS_P2;Temp;Humidity;BMP_temperature;BMP_pressure;BME280_temperature;BME280_humidity;BME280_pressure;Samples;Min_cycle;Max_cycle;Signal;HPM_P1;HPM_P2
2021/01/16 00:00:28;;;;;;;10.23;6.55;;;;;8.40;102790.00;;;;4999025;28;20286;-79
2021/01/16 00:02:54;;;;;;;11.10;6.50;;;;;8.40;102789.00;;;;5008827;28;20197;-79
2021/01/16 00:05:23;;;;;;;11.57;6.60;;;;;8.40;102780.00;;;;5008988;28;20232;-77
2021/01/16 00:08:04;;;;;;;9.07;6.05;;;;;8.30;102772.00;;;;5008544;28;20267;-77
2021/01/16 00:10:32;;;;;;;10.15;5.70;;;;;8.40;102778.00;;;;5003759;28;20578;-77
2021/01/16 00:13:00;;;;;;;10.18;6.55;;;;;8.40;102777.00;;;;5008762;28;20201;-77
2021/01/16 00:15:27;;;;;;;11.93;7.28;;;;;8.40;102787.00;;;;5009031;28;20207;-77
2021/01/16 00:18:02;;;;;;;12.20;7.50;;;;;8.40;102789.00;;;;5008714;28;20212;-77
2021/01/16 00:20:29;;;;;;;9.73;6.65;;;;;8.40;102788.00;;;;5009153;28;20207;-77
2021/01/16 00:22:56;;;;;;;9.90;5.90;;;;;8.40;102785.00;;;;5002021;28;21195;-77
2021/01/16 00:25:25;;;;;;;11.23;6.68;;;;;8.40;102778.00;;;;5008587;28;20235;-77
2021/01/16 00:27:52;;;;;;;11.10;6.60;;;;;8.40;102773.00;;;;4998620;28;20197;-77
2021/01/16 00:30:21;;;;;;;10.48;6.43;;;;;8.40;102770.00;;;;5008712;28;20196;-77
2021/01/16 00:32:48;;;;;;;11.60;6.35;;;;;8.40;102766.00;;;;5008115;28;20671;-77
2021/01/16 00:35:17;;;;;;;9.43;5.90;;;;;8.40;102775.00;;;;5008321;28;20670;-77
2021/01/16 00:37:45;;;;;;;11.55;6.68;;;;;8.40;102774.00;;;;5009207;28;20583;-77
2021/01/16 00:40:14;;;;;;;9.07;5.95;;;;;8.40;102770.00;;;;5008440;28;20193;-77
2021/01/16 00:42:42;;;;;;;10.50;6.60;;;;;8.40;102769.00;;;;5003772;28;20204;-77
2021/01/16 00:45:10;;;;;;;10.35;6.72;;;;;8.40;102775.00;;;;5011909;28;20231;-79
2021/01/16 00:47:37;;;;;;;10.30;5.68;;;;;8.40;102763.00;;;;5012530;28;20204;-79
2021/01/16 00:50:05;;;;;;;8.38;5.43;;;;;8.40;102762.00;;;;5012472;28;20578;-79
2021/01/16 00:52:32;;;;;;;10.90;6.38;;;;;8.40;102764.00;;;;5012189;28;20204;-79
2021/01/16 00:54:59;;;;;;;9.10;5.82;;;;;8.40;102759.00;;;;5012024;28;20209;-79
2021/01/16 00:57:26;;;;;;;10.35;5.60;;;;;8.40;102768.00;;;;5011879;28;20607;-79
2021/01/16 00:59:54;;;;;;;7.15;5.20;;;;;8.40;102760.00;;;;5008953;28;20221;-79
2021/01/16 01:02:22;;;;;;;12.10;5.97;;;;;8.40;102771.00;;;;5000134;28;20682;-79
2021/01/16 01:04:49;;;;;;;10.80;6.43;;;;;8.40;102763.00;;;;5012822;28;20221;-79
2021/01/16 01:07:15;;;;;;;11.98;6.78;;;;;8.40;102763.00;;;;5011833;28;20259;-79
2021/01/16 01:09:44;;;;;;;9.52;5.90;;;;;8.40;102765.00;;;;5011848;28;20205;-79
2021/01/16 01:12:11;;;;;;;10.07;6.20;;;;;8.40;102760.00;;;;5011233;28;20258;-79
2021/01/16 01:14:39;;;;;;;9.85;5.85;;;;;8.40;102757.00;;;;5012439;28;20265;-79
2021/01/16 01:17:16;;;;;;;9.55;5.57;;;;;8.40;102750.00;;;;5011614;28;20208;-79
2021/01/16 01:19:42;;;;;;;9.50;5.70;;;;;8.40;102752.00;;;;5012381;28;20208;-79
2021/01/16 01:22:09;;;;;;;9.43;5.28;;;;;8.40;102741.00;;;;5001790;28;20201;-79
2021/01/16 01:24:36;;;;;;;10.50;5.80;;;;;8.40;102743.00;;;;5011299;28;20220;-79
2021/01/16 01:27:04;;;;;;;10.70;5.75;;;;;8.40;102741.00;;;;5011276;28;20193;-79
2021/01/16 01:29:31;;;;;;;9.93;6.22;;;;;8.40;102739.00;;;;5011244;28;20201;-79
2021/01/16 01:31:57;;;;;;;10.43;5.95;;;;;8.40;102747.00;;;;5010279;28;20209;-79
2021/01/16 01:34:25;;;;;;;9.52;5.63;;;;;8.40;102747.00;;;;5010823;28;20213;-79
2021/01/16 01:36:52;;;;;;;8.90;5.32;;;;;8.40;102747.00;;;;5010925;28;20216;-79
2021/01/16 01:39:19;;;;;;;10.52;6.28;;;;;8.40;102740.00;;;;5011414;28;20209;-79
2021/01/16 01:41:45;;;;;;;8.73;5.55;;;;;8.40;102735.00;;;;5010750;28;20201;-79
2021/01/16 01:44:12;;;;;;;8.82;5.82;;;;;8.40;102738.00;;;;5011245;28;20201;-79
2021/01/16 01:46:40;;;;;;;11.73;6.95;;;;;8.40;102734.00;;;;5010722;28;20225;-79
2021/01/16 01:49:07;;;;;;;10.52;5.88;;;;;8.40;102733.00;;;;5012041;28;20251;-79
2021/01/16 01:51:36;;;;;;;10.07;6.25;;;;;8.40;102732.00;;;;5000430;28;20213;-79
2021/01/16 01:54:04;;;;;;;9.95;6.03;;;;;8.40;102734.00;;;;5010445;28;20579;-80
2021/01/16 01:56:32;;;;;;;8.93;5.55;;;;;8.40;102730.00;;;;5010768;28;20251;-79
2021/01/16 01:59:00;;;;;;;7.78;5.03;;;;;8.40;102725.00;;;;5011218;28;20229;-79
2021/01/16 02:01:29;;;;;;;7.10;5.30;;;;;8.40;102718.00;;;;5010979;28;20292;-79
2021/01/16 02:03:57;;;;;;;9.00;6.15;;;;;8.40;102720.00;;;;5011581;28;20197;-80
2021/01/16 02:06:24;;;;;;;9.55;5.78;;;;;8.40;102718.00;;;;4997351;28;20308;-79
2021/01/16 02:08:51;;;;;;;9.60;5.63;;;;;8.40;102725.00;;;;4999270;28;20280;-79
2021/01/16 02:11:18;;;;;;;8.45;5.43;;;;;8.40;102723.00;;;;4999974;28;20263;-79
2021/01/16 02:13:45;;;;;;;9.10;5.60;;;;;8.40;102718.00;;;;5011307;28;20205;-79
2021/01/16 02:16:24;;;;;;;9.98;6.05;;;;;8.40;102725.00;;;;5010576;28;21035;-79
2021/01/16 02:18:55;;;;;;;8.77;5.25;;;;;8.40;102717.00;;;;5010985;28;20714;-79
2021/01/16 02:21:23;;;;;;;9.50;5.97;;;;;8.40;102709.00;;;;5010371;28;20201;-79
2021/01/16 02:23:56;;;;;;;9.02;5.63;;;;;8.40;102717.00;;;;5010965;28;20197;-79
2021/01/16 02:26:55;;;;;;;10.00;5.28;;;;;8.30;102715.00;;;;5009253;28;21059;-77
2021/01/16 02:29:24;;;;;;;8.88;5.30;;;;;8.40;102714.00;;;;4999409;28;20554;-77
2021/01/16 02:31:57;;;;;;;7.72;5.25;;;;;8.30;102710.00;;;;4998527;28;20249;-77
2021/01/16 02:34:28;;;;;;;9.40;6.00;;;;;8.40;102699.00;;;;4994589;28;20228;-77
2021/01/16 02:37:29;;;;;;;8.55;5.32;;;;;8.30;102717.00;;;;5010112;28;20255;-77
2021/01/16 02:40:05;;;;;;;10.80;5.65;;;;;8.30;102715.00;;;;5010486;28;20663;-77
2021/01/16 02:42:41;;;;;;;7.55;4.80;;;;;8.30;102708.00;;;;5005389;28;20213;-77
2021/01/16 02:45:11;;;;;;;7.85;5.45;;;;;8.30;102693.00;;;;4990753;28;20268;-77
2021/01/16 02:47:48;;;;;;;9.18;5.50;;;;;8.30;102694.00;;;;4998121;28;20201;-77
2021/01/16 02:50:20;;;;;;;10.38;5.55;;;;;8.40;102695.00;;;;5009401;28;20212;-77
2021/01/16 02:52:48;;;;;;;8.50;5.22;;;;;8.40;102695.00;;;;5008921;28;20232;-77
2021/01/16 02:55:16;;;;;;;8.48;5.80;;;;;8.40;102695.00;;;;4989983;28;20229;-77
2021/01/16 02:57:43;;;;;;;7.60;5.40;;;;;8.40;102694.00;;;;4997242;28;20197;-77
2021/01/16 03:00:13;;;;;;;10.52;5.68;;;;;8.40;102685.00;;;;5008435;28;20229;-77
2021/01/16 03:02:40;;;;;;;9.27;5.57;;;;;8.40;102689.00;;;;5009715;28;20204;-77
2021/01/16 03:05:08;;;;;;;9.07;5.20;;;;;8.40;102692.00;;;;5008835;28;20217;-77
2021/01/16 03:07:36;;;;;;;8.68;5.53;;;;;8.40;102684.00;;;;5009292;28;20702;-77
2021/01/16 03:10:07;;;;;;;8.68;5.25;;;;;8.30;102685.00;;;;5008664;28;20212;-77
2021/01/16 03:12:35;;;;;;;7.28;5.15;;;;;8.40;102684.00;;;;5009254;28;20219;-77
2021/01/16 03:15:05;;;;;;;9.73;5.28;;;;;8.30;102671.00;;;;5009365;28;20196;-77
2021/01/16 03:17:45;;;;;;;8.98;4.93;;;;;8.30;102677.00;;;;5008071;28;20201;-77
2021/01/16 03:20:14;;;;;;;11.27;5.38;;;;;8.40;102673.00;;;;5008424;28;20204;-77
2021/01/16 03:22:41;;;;;;;7.53;4.90;;;;;8.40;102667.00;;;;5008491;28;20204;-77
2021/01/16 03:25:08;;;;;;;9.95;5.38;;;;;8.40;102668.00;;;;5008569;28;20224;-77
2021/01/16 03:27:35;;;;;;;8.77;5.47;;;;;8.40;102661.00;;;;5009137;28;20267;-77
2021/01/16 03:30:03;;;;;;;7.93;5.35;;;;;8.40;102665.00;;;;4997116;28;20213;-77
2021/01/16 03:32:30;;;;;;;14.68;6.03;;;;;8.40;102648.00;;;;4993932;28;20228;-77
2021/01/16 03:34:57;;;;;;;8.20;5.38;;;;;8.40;102647.00;;;;5008086;28;20232;-77
2021/01/16 03:37:24;;;;;;;8.88;5.13;;;;;8.40;102659.00;;;;5008458;28;20262;-77
2021/01/16 03:39:51;;;;;;;9.85;5.82;;;;;8.40;102649.00;;;;5008998;28;20682;-77
2021/01/16 03:42:18;;;;;;;8.93;5.45;;;;;8.40;102644.00;;;;5008299;28;20547;-77
2021/01/16 03:44:45;;;;;;;10.15;5.93;;;;;8.40;102644.00;;;;5008864;28;20211;-77
2021/01/16 03:47:12;;;;;;;9.05;5.63;;;;;8.40;102631.00;;;;5008757;28;20255;-77
2021/01/16 03:49:39;;;;;;;8.75;5.45;;;;;8.40;102638.00;;;;5008058;28;20196;-78
2021/01/16 03:52:07;;;;;;;8.60;5.28;;;;;8.40;102630.00;;;;4990780;28;20198;-78
2021/01/16 03:54:34;;;;;;;10.60;5.93;;;;;8.40;102623.00;;;;5009072;28;20197;-78
2021/01/16 03:57:01;;;;;;;10.25;6.30;;;;;8.40;102620.00;;;;5007902;28;20200;-78
2021/01/16 03:59:27;;;;;;;8.90;5.88;;;;;8.40;102622.00;;;;4997013;28;20228;-78
2021/01/16 04:01:54;;;;;;;9.30;5.35;;;;;8.40;102621.00;;;;5008119;28;20197;-78
2021/01/16 04:04:21;;;;;;;9.15;5.43;;;;;8.40;102615.00;;;;5008341;28;20247;-78
2021/01/16 04:06:48;;;;;;;8.55;5.00;;;;;8.40;102621.00;;;;5007668;28;20229;-77
2021/01/16 04:09:15;;;;;;;8.57;5.55;;;;;8.40;102614.00;;;;5023734;28;20219;-77
2021/01/16 04:11:43;;;;;;;8.82;5.70;;;;;8.40;102614.00;;;;5014241;28;20587;-77
2021/01/16 04:14:09;;;;;;;10.23;5.60;;;;;8.40;102623.00;;;;5007896;28;20743;-77
2021/01/16 04:16:36;;;;;;;7.70;4.68;;;;;8.40;102614.00;;;;5008363;28;20201;-78
2021/01/16 04:19:03;;;;;;;8.05;5.40;;;;;8.40;102615.00;;;;5007620;28;20192;-77
2021/01/16 04:21:29;;;;;;;9.15;5.90;;;;;8.40;102604.00;;;;5008037;28;20212;-77
2021/01/16 04:23:56;;;;;;;9.15;5.53;;;;;8.40;102602.00;;;;5007157;28;20201;-78
2021/01/16 04:26:24;;;;;;;8.02;5.35;;;;;8.40;102603.00;;;;5007887;28;20220;-78
2021/01/16 04:28:50;;;;;;;7.57;5.15;;;;;8.40;102591.00;;;;5007929;28;20570;-78
2021/01/16 04:31:17;;;;;;;7.50;5.55;;;;;8.40;102594.00;;;;4999111;28;20205;-77
2021/01/16 04:33:44;;;;;;;8.30;5.53;;;;;8.40;102594.00;;;;5002869;28;20681;-77
2021/01/16 04:36:11;;;;;;;9.57;5.80;;;;;8.40;102589.00;;;;5007188;28;20387;-77
2021/01/16 04:38:38;;;;;;;8.43;5.57;;;;;8.40;102583.00;;;;5008370;28;20204;-77
2021/01/16 04:41:04;;;;;;;7.53;4.95;;;;;8.40;102589.00;;;;5007057;28;20197;-77
2021/01/16 04:43:32;;;;;;;10.52;5.93;;;;;8.40;102585.00;;;;5008148;28;20201;-78
2021/01/16 04:46:04;;;;;;;7.78;4.78;;;;;8.30;102579.00;;;;5008599;28;20220;-78
2021/01/16 04:48:34;;;;;;;8.18;5.38;;;;;8.40;102578.00;;;;5007001;28;20272;-78
2021/01/16 04:51:01;;;;;;;8.93;5.95;;;;;8.40;102575.00;;;;5001290;28;20296;-77
2021/01/16 04:53:36;;;;;;;8.25;5.20;;;;;8.40;102582.00;;;;4994984;28;20201;-78
2021/01/16 04:56:05;;;;;;;10.13;5.78;;;;;8.40;102570.00;;;;5007712;28;20296;-78
2021/01/16 04:58:34;;;;;;;7.90;5.25;;;;;8.40;102565.00;;;;5007413;28;20263;-78
2021/01/16 05:01:05;;;;;;;8.73;5.60;;;;;8.40;102560.00;;;;4997087;28;20202;-78
2021/01/16 05:03:37;;;;;;;9.98;5.45;;;;;8.30;102567.00;;;;5004784;28;20205;-78
2021/01/16 05:06:07;;;;;;;8.50;5.15;;;;;8.40;102563.00;;;;5007795;28;20698;-79
2021/01/16 05:08:35;;;;;;;10.15;5.15;;;;;8.40;102560.00;;;;5007943;28;20682;-78
2021/01/16 05:11:06;;;;;;;7.88;5.47;;;;;8.40;102558.00;;;;5007369;28;20205;-78
2021/01/16 05:13:43;;;;;;;8.73;5.57;;;;;8.40;102561.00;;;;5008134;28;20193;-79
2021/01/16 05:16:12;;;;;;;8.55;4.65;;;;;8.40;102549.00;;;;5006988;28;20243;-78
2021/01/16 05:18:42;;;;;;;9.02;5.20;;;;;8.40;102546.00;;;;5007328;28;20582;-78
2021/01/16 05:21:10;;;;;;;7.88;4.75;;;;;8.40;102545.00;;;;5007318;28;20240;-78
2021/01/16 05:23:42;;;;;;;7.60;5.32;;;;;8.40;102543.00;;;;5007472;28;20217;-78
2021/01/16 05:26:09;;;;;;;7.15;5.00;;;;;8.40;102536.00;;;;5007236;28;20217;-78
2021/01/16 05:28:39;;;;;;;9.85;4.88;;;;;8.40;102532.00;;;;5008082;28;20201;-78
2021/01/16 05:31:07;;;;;;;8.65;5.30;;;;;8.40;102520.00;;;;5002653;28;20691;-78
2021/01/16 05:33:36;;;;;;;10.20;5.78;;;;;8.40;102528.00;;;;4998414;28;20209;-78
2021/01/16 05:36:05;;;;;;;6.70;4.45;;;;;8.40;102526.00;;;;5010925;28;20671;-78
2021/01/16 05:38:35;;;;;;;8.35;5.22;;;;;8.40;102519.00;;;;5010762;28;20197;-78
2021/01/16 05:41:05;;;;;;;7.78;5.32;;;;;8.40;102516.00;;;;5008588;28;20284;-78
2021/01/16 05:43:33;;;;;;;7.70;4.80;;;;;8.40;102522.00;;;;5006942;28;20205;-78
2021/01/16 05:46:02;;;;;;;7.57;5.05;;;;;8.40;102519.00;;;;5010369;28;20624;-78
2021/01/16 05:48:31;;;;;;;6.80;5.05;;;;;8.40;102519.00;;;;5010947;28;20194;-78
2021/01/16 05:50:59;;;;;;;7.75;5.15;;;;;8.40;102517.00;;;;5004587;28;20245;-78
2021/01/16 05:53:27;;;;;;;7.78;5.30;;;;;8.40;102516.00;;;;4996664;28;20204;-78
2021/01/16 05:55:55;;;;;;;7.13;4.63;;;;;8.40;102508.00;;;;5010341;28;20205;-78
2021/01/16 05:58:24;;;;;;;7.18;5.07;;;;;8.40;102513.00;;;;4999120;28;20211;-78
2021/01/16 06:00:52;;;;;;;8.32;5.65;;;;;8.40;102511.00;;;;5011144;28;20202;-77
2021/01/16 06:03:21;;;;;;;7.00;5.18;;;;;8.40;102498.00;;;;5010496;28;20189;-78
2021/01/16 06:05:49;;;;;;;8.00;5.63;;;;;8.40;102498.00;;;;5010394;28;20217;-78
2021/01/16 06:08:17;;;;;;;8.38;5.15;;;;;8.40;102498.00;;;;4991920;28;20222;-78
2021/01/16 06:10:51;;;;;;;7.97;5.30;;;;;8.40;102492.00;;;;5004144;28;20201;-77
2021/01/16 06:13:20;;;;;;;10.38;5.97;;;;;8.40;102492.00;;;;5011239;28;20216;-78
2021/01/16 06:15:49;;;;;;;8.50;4.95;;;;;8.40;102495.00;;;;5010933;28;20200;-79
2021/01/16 06:18:23;;;;;;;7.72;4.82;;;;;8.40;102491.00;;;;5010819;28;20204;-79
2021/01/16 06:20:52;;;;;;;6.30;4.35;;;;;8.40;102487.00;;;;5009737;28;20828;-79
2021/01/16 06:23:22;;;;;;;8.65;5.60;;;;;8.40;102487.00;;;;5010366;28;20201;-78
2021/01/16 06:25:51;;;;;;;7.75;5.30;;;;;8.40;102491.00;;;;5011609;28;20229;-79
2021/01/16 06:28:21;;;;;;;8.23;5.35;;;;;8.40;102493.00;;;;5010283;28;20201;-79
2021/01/16 06:30:52;;;;;;;8.13;5.13;;;;;8.40;102481.00;;;;5009964;28;20710;-79
2021/01/16 06:33:25;;;;;;;7.60;4.80;;;;;8.40;102488.00;;;;5010582;28;20201;-79
2021/01/16 06:35:57;;;;;;;8.57;5.45;;;;;8.40;102480.00;;;;5009582;28;20691;-79
2021/01/16 06:38:30;;;;;;;8.00;5.40;;;;;8.40;102471.00;;;;5010850;28;20212;-79
2021/01/16 06:41:10;;;;;;;8.55;5.43;;;;;8.40;102478.00;;;;5007932;28;20674;-79
2021/01/16 06:43:40;;;;;;;8.20;5.45;;;;;8.40;102479.00;;;;5003198;28;20205;-78
2021/01/16 06:46:09;;;;;;;8.55;5.10;;;;;8.40;102479.00;;;;5009931;28;20221;-79
2021/01/16 06:48:42;;;;;;;8.43;4.85;;;;;8.40;102479.00;;;;5010398;28;20197;-79
2021/01/16 06:51:11;;;;;;;8.63;5.05;;;;;8.40;102483.00;;;;5008642;28;20197;-79
2021/01/16 06:53:38;;;;;;;8.55;5.72;;;;;8.40;102478.00;;;;5010530;28;20229;-79
2021/01/16 06:56:09;;;;;;;8.40;5.10;;;;;8.40;102470.00;;;;5009921;28;20204;-79
2021/01/16 06:58:41;;;;;;;7.70;4.55;;;;;8.40;102467.00;;;;5009547;28;20601;-79
2021/01/16 07:01:10;;;;;;;8.27;4.93;;;;;8.40;102476.00;;;;5009158;28;20197;-79
2021/01/16 07:03:45;;;;;;;16.55;5.45;;;;;8.40;102466.00;;;;5010525;28;20208;-79
2021/01/16 07:06:12;;;;;;;7.15;4.50;;;;;8.40;102459.00;;;;5009578;28;20232;-79
2021/01/16 07:08:43;;;;;;;9.20;5.15;;;;;8.40;102464.00;;;;5009488;28;20296;-78
2021/01/16 07:11:10;;;;;;;8.65;5.13;;;;;8.40;102465.00;;;;5009396;28;20671;-78
2021/01/16 07:13:41;;;;;;;6.28;4.38;;;;;8.40;102467.00;;;;5008923;28;20193;-79
2021/01/16 07:16:08;;;;;;;8.30;4.95;;;;;8.40;102459.00;;;;5009840;28;20209;-79
2021/01/16 07:18:37;;;;;;;7.47;4.57;;;;;8.40;102457.00;;;;5009782;28;20284;-79
2021/01/16 07:21:06;;;;;;;6.82;4.75;;;;;8.40;102462.00;;;;5009907;28;20204;-79
2021/01/16 07:23:35;;;;;;;6.97;4.50;;;;;8.40;102461.00;;;;5009914;28;20231;-78
2021/01/16 07:26:03;;;;;;;7.40;4.88;;;;;8.40;102466.00;;;;5009405;28;20225;-77
2021/01/16 07:28:31;;;;;;;7.72;4.70;;;;;8.40;102464.00;;;;5009730;28;20259;-77
2021/01/16 07:30:58;;;;;;;7.15;4.70;;;;;8.40;102464.00;;;;5001484;28;20816;-77
2021/01/16 07:33:29;;;;;;;6.38;4.68;;;;;8.40;102460.00;;;;5005263;28;20208;-77
2021/01/16 07:35:59;;;;;;;11.18;5.03;;;;;8.40;102458.00;;;;5007036;28;20205;-77
2021/01/16 07:38:28;;;;;;;6.43;3.80;;;;;8.40;102453.00;;;;5007860;28;20201;-77
2021/01/16 07:40:57;;;;;;;7.10;4.68;;;;;8.40;102458.00;;;;5003802;28;21026;-77
2021/01/16 07:43:47;;;;;;;7.05;5.05;;;;;8.30;102451.00;;;;5003866;28;20244;-78
2021/01/16 07:46:20;;;;;;;6.15;4.20;;;;;8.40;102447.00;;;;5003667;28;20256;-77
2021/01/16 07:48:50;;;;;;;5.70;4.13;;;;;8.40;102450.00;;;;5005994;28;20548;-78
2021/01/16 07:51:18;;;;;;;7.22;3.80;;;;;8.40;102442.00;;;;5005158;28;20189;-78
2021/01/16 07:53:46;;;;;;;7.47;4.65;;;;;8.40;102443.00;;;;5004286;28;20213;-77
2021/01/16 07:56:21;;;;;;;8.98;4.78;;;;;8.40;102443.00;;;;5006541;28;20200;-77
2021/01/16 07:59:03;;;;;;;8.25;4.82;;;;;8.40;102436.00;;;;5005305;28;20256;-77
2021/01/16 08:01:41;;;;;;;8.93;5.25;;;;;8.40;102435.00;;;;5003316;28;20557;-77
2021/01/16 08:04:24;;;;;;;7.47;4.63;;;;;8.40;102436.00;;;;5007628;28;20212;-78
2021/01/16 08:07:03;;;;;;;7.55;4.78;;;;;8.40;102425.00;;;;5005220;28;20232;-78
2021/01/16 08:09:55;;;;;;;6.90;4.63;;;;;8.40;102419.00;;;;5002838;28;20591;-77
2021/01/16 08:12:24;;;;;;;7.20;4.47;;;;;8.50;102418.00;;;;5001370;28;20204;-78
2021/01/16 08:14:51;;;;;;;8.35;4.78;;;;;8.50;102416.00;;;;5006916;28;20200;-79
2021/01/16 08:17:21;;;;;;;9.18;4.88;;;;;8.50;102428.00;;;;5008014;28;20215;-78
2021/01/16 08:20:08;;;;;;;7.82;5.22;;;;;8.40;102412.00;;;;5008686;28;20206;-79
2021/01/16 08:22:37;;;;;;;7.50;4.95;;;;;8.50;102406.00;;;;5005177;28;20200;-78
2021/01/16 08:25:07;;;;;;;7.40;4.53;;;;;8.50;102404.00;;;;5006134;28;20255;-79
2021/01/16 08:27:35;;;;;;;6.25;4.22;;;;;8.60;102411.00;;;;5005214;28;20244;-78
2021/01/16 08:30:10;;;;;;;8.38;4.53;;;;;8.50;102410.00;;;;5005405;28;20197;-78
2021/01/16 08:32:57;;;;;;;8.68;5.40;;;;;8.50;102411.00;;;;4997426;28;20209;-77
2021/01/16 08:35:26;;;;;;;8.13;4.65;;;;;8.60;102410.00;;;;5005481;28;20213;-78
2021/01/16 08:37:53;;;;;;;9.55;5.55;;;;;8.60;102402.00;;;;5005858;28;20205;-77
2021/01/16 08:40:37;;;;;;;7.68;4.90;;;;;8.50;102409.00;;;;5001905;28;20318;-77
2021/01/16 08:43:04;;;;;;;7.65;4.72;;;;;8.60;102387.00;;;;5006470;28;20204;-78
2021/01/16 08:45:31;;;;;;;16.73;6.05;;;;;8.60;102388.00;;;;4997426;28;20225;-78
2021/01/16 08:47:59;;;;;;;8.55;5.40;;;;;8.60;102388.00;;;;5008274;28;20204;-78
2021/01/16 08:50:29;;;;;;;11.15;5.57;;;;;8.60;102393.00;;;;5006183;28;20201;-78
2021/01/16 08:52:56;;;;;;;8.65;5.32;;;;;8.70;102389.00;;;;5005504;28;20204;-78
2021/01/16 08:55:27;;;;;;;10.45;5.63;;;;;8.60;102382.00;;;;5007771;28;20255;-79
2021/01/16 08:58:08;;;;;;;8.25;5.50;;;;;8.60;102377.00;;;;4997545;28;20212;-79
2021/01/16 09:00:36;;;;;;;9.95;5.70;;;;;8.70;102378.00;;;;5004537;28;20921;-77
2021/01/16 09:03:12;;;;;;;10.80;5.85;;;;;8.60;102378.00;;;;5004196;28;20672;-78
2021/01/16 09:05:40;;;;;;;11.50;6.00;;;;;8.70;102377.00;;;;5007642;28;20216;-78
2021/01/16 09:08:19;;;;;;;8.18;4.85;;;;;8.60;102385.00;;;;5009255;28;20244;-78
2021/01/16 09:10:46;;;;;;;9.43;5.53;;;;;8.70;102372.00;;;;5007977;28;20201;-78
2021/01/16 09:13:31;;;;;;;9.90;5.20;;;;;8.60;102381.00;;;;5010046;28;20212;-78
2021/01/16 09:15:59;;;;;;;9.50;5.32;;;;;8.70;102363.00;;;;5009228;28;20208;-78
2021/01/16 09:18:26;;;;;;;9.75;5.18;;;;;8.70;102359.00;;;;5010044;28;20202;-77
2021/01/16 09:21:01;;;;;;;9.25;5.15;;;;;8.70;102359.00;;;;5005031;28;20202;-78
2021/01/16 09:23:30;;;;;;;8.52;5.53;;;;;8.70;102355.00;;;;4991646;28;20205;-77
2021/01/16 09:25:59;;;;;;;9.35;5.43;;;;;8.70;102363.00;;;;5004478;28;20224;-79
2021/01/16 09:28:44;;;;;;;8.75;5.55;;;;;8.70;102358.00;;;;4996900;28;20212;-78
2021/01/16 09:31:33;;;;;;;8.02;5.07;;;;;8.60;102360.00;;;;4999195;28;20234;-78
2021/01/16 09:34:07;;;;;;;9.80;5.78;;;;;8.70;102354.00;;;;4999924;28;20272;-78
2021/01/16 09:36:57;;;;;;;10.23;5.60;;;;;8.70;102359.00;;;;5006575;28;20239;-79
2021/01/16 09:39:25;;;;;;;9.35;6.20;;;;;8.80;102362.00;;;;5000601;28;20697;-79
2021/01/16 09:41:54;;;;;;;8.50;5.30;;;;;8.80;102375.00;;;;4999076;28;20213;-78
2021/01/16 09:44:51;;;;;;;10.70;6.15;;;;;8.70;102367.00;;;;5002937;28;20248;-78
2021/01/16 09:47:43;;;;;;;9.90;5.95;;;;;8.70;102364.00;;;;4995901;28;20228;-78
2021/01/16 09:50:15;;;;;;;11.73;6.20;;;;;8.80;102362.00;;;;5006612;28;20205;-78
2021/01/16 09:53:03;;;;;;;9.15;5.78;;;;;8.70;102362.00;;;;5009828;28;20258;-79
2021/01/16 09:55:34;;;;;;;9.75;5.32;;;;;8.90;102356.00;;;;5008180;28;20201;-78
2021/01/16 09:58:02;;;;;;;10.30;5.35;;;;;8.90;102348.00;;;;4992256;28;20651;-79
2021/01/16 10:00:32;;;;;;;9.93;6.05;;;;;8.90;102355.00;;;;5005176;28;20229;-79
2021/01/16 10:03:03;;;;;;;9.05;5.35;;;;;8.90;102357.00;;;;5000350;28;20689;-78
2021/01/16 10:05:36;;;;;;;12.20;6.97;;;;;9.00;102359.00;;;;5003797;28;20204;-78
2021/01/16 10:08:05;;;;;;;11.10;7.10;;;;;9.00;102355.00;;;;5010227;28;20591;-79
2021/01/16 10:10:46;;;;;;;9.77;6.32;;;;;9.00;102361.00;;;;5010811;28;20197;-80
2021/01/16 10:13:21;;;;;;;11.88;6.13;;;;;9.10;102352.00;;;;5009981;28;20212;-78
2021/01/16 10:15:52;;;;;;;9.98;6.05;;;;;9.10;102354.00;;;;5009250;28;20211;-79
2021/01/16 10:18:20;;;;;;;10.93;7.03;;;;;9.10;102338.00;;;;5006083;28;20193;-80
2021/01/16 10:21:00;;;;;;;12.60;7.18;;;;;9.10;102339.00;;;;5002324;28;20197;-79
2021/01/16 10:23:28;;;;;;;8.90;5.63;;;;;9.20;102331.00;;;;5010735;28;20768;-79
2021/01/16 10:26:04;;;;;;;9.77;5.95;;;;;9.10;102333.00;;;;5009903;28;20280;-79
2021/01/16 10:28:33;;;;;;;12.63;6.75;;;;;9.20;102324.00;;;;5010451;28;20196;-78
2021/01/16 10:31:02;;;;;;;10.07;6.75;;;;;9.20;102322.00;;;;5006901;28;20200;-80
2021/01/16 10:33:36;;;;;;;13.13;7.03;;;;;9.10;102317.00;;;;5005444;28;20208;-80
2021/01/16 10:36:09;;;;;;;12.07;7.05;;;;;9.10;102323.00;;;;5009841;28;20285;-80
2021/01/16 10:38:50;;;;;;;10.50;6.53;;;;;9.10;102317.00;;;;5010115;28;20263;-80
2021/01/16 10:41:19;;;;;;;9.25;5.93;;;;;9.10;102307.00;;;;5009924;28;20203;-80
2021/01/16 10:43:46;;;;;;;8.77;5.38;;;;;9.10;102309.00;;;;5010179;28;20208;-80
2021/01/16 10:46:22;;;;;;;12.00;6.57;;;;;9.10;102306.00;;;;5008479;28;20227;-80
2021/01/16 10:48:49;;;;;;;11.13;6.45;;;;;9.10;102301.00;;;;5000578;28;20241;-80
2021/01/16 10:51:23;;;;;;;11.43;6.40;;;;;9.10;102299.00;;;;4993026;28;20234;-80
2021/01/16 10:53:57;;;;;;;9.98;5.93;;;;;9.10;102294.00;;;;4990637;28;20667;-80
2021/01/16 10:56:26;;;;;;;10.95;6.40;;;;;9.10;102293.00;;;;5001836;28;20239;-80
2021/01/16 10:59:08;;;;;;;10.02;6.50;;;;;9.10;102281.00;;;;5009796;28;20244;-80
2021/01/16 11:01:45;;;;;;;12.38;6.97;;;;;9.10;102287.00;;;;5009406;28;20228;-80
2021/01/16 11:04:20;;;;;;;12.48;7.72;;;;;9.10;102272.00;;;;5005048;28;20205;-80
2021/01/16 11:06:50;;;;;;;11.48;6.60;;;;;9.10;102268.00;;;;5010052;28;20228;-80
2021/01/16 11:09:52;;;;;;;10.15;6.53;;;;;9.10;102264.00;;;;5008661;28;20217;-80
2021/01/16 11:12:28;;;;;;;11.20;6.05;;;;;9.10;102255.00;;;;4999099;28;20197;-80
2021/01/16 11:14:55;;;;;;;10.27;6.20;;;;;9.20;102241.00;;;;4995020;28;20201;-80
2021/01/16 11:17:46;;;;;;;8.63;6.30;;;;;9.10;102243.00;;;;5008487;28;20652;-80
2021/01/16 11:20:20;;;;;;;10.60;6.57;;;;;9.10;102234.00;;;;4994255;28;20641;-79
2021/01/16 11:23:11;;;;;;;10.88;6.25;;;;;9.20;102223.00;;;;5000502;28;20229;-79
2021/01/16 11:25:42;;;;;;;10.43;6.10;;;;;9.20;102223.00;;;;5007452;28;20208;-79
2021/01/16 11:28:10;;;;;;;8.95;5.55;;;;;9.20;102224.00;;;;5008061;28;20197;-80
2021/01/16 11:30:42;;;;;;;10.23;5.88;;;;;9.20;102221.00;;;;5009102;28;20201;-80
2021/01/16 11:33:15;;;;;;;8.38;5.40;;;;;9.20;102218.00;;;;5004663;28;20193;-80
2021/01/16 11:35:43;;;;;;;8.05;4.70;;;;;9.30;102210.00;;;;4998370;28;20197;-80
2021/01/16 11:38:38;;;;;;;8.68;5.13;;;;;9.20;102209.00;;;;5005453;28;20205;-80
2021/01/16 11:41:05;;;;;;;10.15;5.68;;;;;9.20;102194.00;;;;4998562;28;20254;-79
2021/01/16 11:43:32;;;;;;;10.20;5.72;;;;;9.20;102190.00;;;;5008345;28;20539;-79
2021/01/16 11:46:03;;;;;;;9.48;5.43;;;;;9.20;102189.00;;;;5008555;28;20225;-79
2021/01/16 11:48:33;;;;;;;8.32;5.38;;;;;9.10;102181.00;;;;5005703;28;20249;-79
2021/01/16 11:51:10;;;;;;;6.65;4.50;;;;;9.20;102184.00;;;;5007329;28;20251;-78
2021/01/16 11:53:37;;;;;;;8.38;5.10;;;;;9.20;102175.00;;;;4999856;28;20696;-78
2021/01/16 11:56:05;;;;;;;9.13;5.00;;;;;9.20;102164.00;;;;5006710;28;20571;-79
2021/01/16 11:58:35;;;;;;;6.50;4.20;;;;;9.20;102157.00;;;;4995066;28;20237;-78
2021/01/16 12:01:02;;;;;;;9.10;4.93;;;;;9.20;102153.00;;;;4994587;28;20573;-77
2021/01/16 12:03:29;;;;;;;8.98;4.57;;;;;9.20;102143.00;;;;5007863;28;20201;-78
2021/01/16 12:05:57;;;;;;;6.68;4.35;;;;;9.20;102143.00;;;;5006052;28;20217;-78
2021/01/16 12:08:24;;;;;;;6.50;4.47;;;;;9.20;102138.00;;;;5005525;28;20213;-78
2021/01/16 12:10:51;;;;;;;7.60;4.30;;;;;9.10;102125.00;;;;4998562;28;20201;-78
2021/01/16 12:13:18;;;;;;;6.90;4.47;;;;;9.10;102122.00;;;;4997450;28;20194;-78
2021/01/16 12:15:45;;;;;;;8.23;4.95;;;;;9.10;102112.00;;;;5004825;28;20201;-79
2021/01/16 12:18:12;;;;;;;8.25;4.70;;;;;9.10;102101.00;;;;4999270;28;20197;-78
2021/01/16 12:20:40;;;;;;;5.55;3.85;;;;;9.10;102100.00;;;;5001096;28;20194;-79
2021/01/16 12:23:12;;;;;;;8.25;4.50;;;;;9.10;102094.00;;;;5004452;28;20200;-79
2021/01/16 12:25:40;;;;;;;6.65;3.75;;;;;9.10;102090.00;;;;5006099;28;20197;-79
2021/01/16 12:28:15;;;;;;;6.13;3.85;;;;;9.00;102082.00;;;;5006810;28;20204;-78
2021/01/16 12:30:43;;;;;;;5.93;3.92;;;;;9.10;102076.00;;;;4996948;28;20197;-79
2021/01/16 12:33:10;;;;;;;6.63;4.05;;;;;9.10;102075.00;;;;4996986;28;20205;-79